sensor_id;sensor_type;location;lat;lon;timestamp;P1;durP1;ratioP1;P2;durP2;ratioP2
79377;SDS011;68959;53.132;17.984;2023-04-06T00:00:09;62.40;;;20.90;;
79377;SDS011;68959;53.132;17.984;2023-04-06T00:02:57;61.20;;;19.50;;
79377;SDS011;68959;53.132;17.984;2023-04-06T00:05:23;58.10;;;20.80;;
79377;SDS011;68959;53.132;17.984;2023-04-06T00:07:50;64.80;;;21.90;;
79377;SDS011;68959;53.132;17.984;2023-04-06T00:10:17;60.80;;;19.70;;
79377;SDS011;68959;53.132;17.984;2023-04-06T00:12:43;60.80;;;20.50;;
79377;SDS011;68959;53.132;17.984;2023-04-06T00:15:10;61.60;;;20.30;;
79377;SDS011;68959;53.132;17.984;2023-04-06T00:17:37;63.70;;;20.30;;
79377;SDS011;68959;53.132;17.984;2023-04-06T00:20:03;49.20;;;19.70;;
79377;SDS011;68959;53.132;17.984;2023-04-06T00:22:33;49.40;;;17.50;;
79377;SDS011;68959;53.132;17.984;2023-04-06T00:25:00;51.00;;;17.00;;
79377;SDS011;68959;53.132;17.984;2023-04-06T00:27:26;46.20;;;17.90;;
79377;SDS011;68959;53.132;17.984;2023-04-06T00:29:53;46.00;;;17.20;;
79377;SDS011;68959;53.132;17.984;2023-04-06T00:32:20;41.60;;;14.50;;
79377;SDS011;68959;53.132;17.984;2023-04-06T00:34:46;40.30;;;15.80;;
79377;SDS011;68959;53.132;17.984;2023-04-06T00:37:13;44.20;;;16.70;;
79377;SDS011;68959;53.132;17.984;2023-04-06T00:39:40;50.50;;;20.30;;
79377;SDS011;68959;53.132;17.984;2023-04-06T00:42:07;45.50;;;19.40;;
79377;SDS011;68959;53.132;17.984;2023-04-06T00:44:42;34.70;;;15.90;;
79377;SDS011;68959;53.132;17.984;2023-04-06T00:47:08;35.50;;;13.80;;
79377;SDS011;68959;53.132;17.984;2023-04-06T00:49:35;39.00;;;14.50;;
79377;SDS011;68959;53.132;17.984;2023-04-06T00:52:02;39.90;;;14.60;;
79377;SDS011;68959;53.132;17.984;2023-04-06T00:54:29;35.40;;;14.50;;
79377;SDS011;68959;53.132;17.984;2023-04-06T00:56:57;38.90;;;14.40;;
79377;SDS011;68959;53.132;17.984;2023-04-06T00:59:24;36.60;;;14.80;;
79377;SDS011;68959;53.132;17.984;2023-04-06T01:01:53;38.60;;;15.10;;
79377;SDS011;68959;53.132;17.984;2023-04-06T01:04:32;43.50;;;15.40;;
79377;SDS011;68959;53.132;17.984;2023-04-06T01:07:01;32.50;;;14.70;;
79377;SDS011;68959;53.132;17.984;2023-04-06T01:09:32;39.70;;;15.00;;
79377;SDS011;68959;53.132;17.984;2023-04-06T01:12:00;40.60;;;16.10;;
79377;SDS011;68959;53.132;17.984;2023-04-06T01:14:29;35.00;;;15.10;;
79377;SDS011;68959;53.132;17.984;2023-04-06T01:16:59;36.10;;;15.00;;
79377;SDS011;68959;53.132;17.984;2023-04-06T01:19:30;43.80;;;16.90;;
79377;SDS011;68959;53.132;17.984;2023-04-06T01:21:57;47.90;;;19.20;;
79377;SDS011;68959;53.132;17.984;2023-04-06T01:24:30;49.50;;;23.00;;
79377;SDS011;68959;53.132;17.984;2023-04-06T01:27:02;47.20;;;20.70;;
79377;SDS011;68959;53.132;17.984;2023-04-06T01:29:38;44.50;;;18.70;;
79377;SDS011;68959;53.132;17.984;2023-04-06T01:32:08;32.10;;;13.00;;
79377;SDS011;68959;53.132;17.984;2023-04-06T01:34:38;35.10;;;13.50;;
79377;SDS011;68959;53.132;17.984;2023-04-06T01:37:05;39.00;;;15.30;;
79377;SDS011;68959;53.132;17.984;2023-04-06T01:39:32;44.30;;;16.20;;
79377;SDS011;68959;53.132;17.984;2023-04-06T01:42:00;46.30;;;18.70;;
79377;SDS011;68959;53.132;17.984;2023-04-06T01:44:27;48.80;;;17.60;;
79377;SDS011;68959;53.132;17.984;2023-04-06T01:47:03;38.60;;;14.40;;
79377;SDS011;68959;53.132;17.984;2023-04-06T01:49:30;44.40;;;15.70;;
79377;SDS011;68959;53.132;17.984;2023-04-06T01:51:57;41.30;;;14.20;;
79377;SDS011;68959;53.132;17.984;2023-04-06T01:54:23;39.60;;;13.60;;
79377;SDS011;68959;53.132;17.984;2023-04-06T01:57:10;36.20;;;13.60;;
79377;SDS011;68959;53.132;17.984;2023-04-06T02:00:00;42.90;;;15.70;;
79377;SDS011;68959;53.132;17.984;2023-04-06T02:02:39;45.80;;;17.80;;
79377;SDS011;68959;53.132;17.984;2023-04-06T02:05:10;56.10;;;21.40;;
79377;SDS011;68959;53.132;17.984;2023-04-06T02:07:37;68.70;;;28.30;;
79377;SDS011;68959;53.132;17.984;2023-04-06T02:10:04;64.00;;;28.40;;
79377;SDS011;68959;53.132;17.984;2023-04-06T02:12:38;67.80;;;25.40;;
79377;SDS011;68959;53.132;17.984;2023-04-06T02:15:07;71.70;;;25.50;;
79377;SDS011;68959;53.132;17.984;2023-04-06T02:17:34;65.70;;;22.50;;
79377;SDS011;68959;53.132;17.984;2023-04-06T02:20:00;69.50;;;22.90;;
79377;SDS011;68959;53.132;17.984;2023-04-06T02:22:27;69.10;;;24.80;;
79377;SDS011;68959;53.132;17.984;2023-04-06T02:24:53;67.90;;;25.00;;
79377;SDS011;68959;53.132;17.984;2023-04-06T02:27:20;72.60;;;27.00;;
79377;SDS011;68959;53.132;17.984;2023-04-06T02:29:47;74.30;;;28.50;;
79377;SDS011;68959;53.132;17.984;2023-04-06T02:32:14;69.50;;;24.90;;
79377;SDS011;68959;53.132;17.984;2023-04-06T02:34:41;74.60;;;28.70;;
79377;SDS011;68959;53.132;17.984;2023-04-06T02:37:08;86.80;;;31.20;;
79377;SDS011;68959;53.132;17.984;2023-04-06T02:39:34;80.80;;;29.20;;
79377;SDS011;68959;53.132;17.984;2023-04-06T02:42:01;80.60;;;28.80;;
79377;SDS011;68959;53.132;17.984;2023-04-06T02:44:28;93.10;;;33.90;;
79377;SDS011;68959;53.132;17.984;2023-04-06T02:46:54;95.40;;;35.20;;
79377;SDS011;68959;53.132;17.984;2023-04-06T02:49:21;92.20;;;38.10;;
79377;SDS011;68959;53.132;17.984;2023-04-06T02:51:49;80.50;;;34.10;;
79377;SDS011;68959;53.132;17.984;2023-04-06T02:54:25;91.30;;;36.80;;
79377;SDS011;68959;53.132;17.984;2023-04-06T02:56:51;92.00;;;34.50;;
79377;SDS011;68959;53.132;17.984;2023-04-06T02:59:18;68.90;;;26.80;;
79377;SDS011;68959;53.132;17.984;2023-04-06T03:01:53;52.30;;;23.30;;
79377;SDS011;68959;53.132;17.984;2023-04-06T03:04:20;53.70;;;20.30;;
79377;SDS011;68959;53.132;17.984;2023-04-06T03:06:50;53.60;;;20.70;;
79377;SDS011;68959;53.132;17.984;2023-04-06T03:09:25;50.40;;;19.80;;
79377;SDS011;68959;53.132;17.984;2023-04-06T03:11:53;54.70;;;21.60;;
79377;SDS011;68959;53.132;17.984;2023-04-06T03:14:21;54.20;;;21.60;;
79377;SDS011;68959;53.132;17.984;2023-04-06T03:16:49;53.20;;;21.50;;
79377;SDS011;68959;53.132;17.984;2023-04-06T03:19:18;43.70;;;19.30;;
79377;SDS011;68959;53.132;17.984;2023-04-06T03:21:45;44.50;;;16.50;;
79377;SDS011;68959;53.132;17.984;2023-04-06T03:24:12;43.50;;;16.00;;
79377;SDS011;68959;53.132;17.984;2023-04-06T03:26:40;45.40;;;17.50;;
79377;SDS011;68959;53.132;17.984;2023-04-06T03:29:07;32.60;;;14.10;;
79377;SDS011;68959;53.132;17.984;2023-04-06T03:31:35;50.40;;;17.40;;
79377;SDS011;68959;53.132;17.984;2023-04-06T03:34:08;55.00;;;21.80;;
79377;SDS011;68959;53.132;17.984;2023-04-06T03:36:35;61.10;;;25.50;;
79377;SDS011;68959;53.132;17.984;2023-04-06T03:39:03;60.70;;;26.70;;
79377;SDS011;68959;53.132;17.984;2023-04-06T03:41:32;52.10;;;20.70;;
79377;SDS011;68959;53.132;17.984;2023-04-06T03:44:22;42.60;;;17.60;;
79377;SDS011;68959;53.132;17.984;2023-04-06T03:46:49;38.80;;;15.80;;
79377;SDS011;68959;53.132;17.984;2023-04-06T03:49:16;48.40;;;16.20;;
79377;SDS011;68959;53.132;17.984;2023-04-06T03:51:45;40.00;;;15.70;;
79377;SDS011;68959;53.132;17.984;2023-04-06T03:54:11;40.90;;;16.70;;
79377;SDS011;68959;53.132;17.984;2023-04-06T03:56:38;47.90;;;18.00;;
79377;SDS011;68959;53.132;17.984;2023-04-06T03:59:05;37.80;;;16.50;;
79377;SDS011;68959;53.132;17.984;2023-04-06T04:01:32;49.40;;;21.20;;
79377;SDS011;68959;53.132;17.984;2023-04-06T04:03:58;79.90;;;30.90;;
79377;SDS011;68959;53.132;17.984;2023-04-06T04:06:25;61.40;;;22.30;;
79377;SDS011;68959;53.132;17.984;2023-04-06T04:08:51;48.70;;;20.10;;
79377;SDS011;68959;53.132;17.984;2023-04-06T04:11:18;44.40;;;18.00;;
79377;SDS011;68959;53.132;17.984;2023-04-06T04:13:47;40.20;;;17.10;;
79377;SDS011;68959;53.132;17.984;2023-04-06T04:16:14;39.50;;;17.90;;
79377;SDS011;68959;53.132;17.984;2023-04-06T04:18:41;55.20;;;24.40;;
79377;SDS011;68959;53.132;17.984;2023-04-06T04:21:09;69.00;;;32.90;;
79377;SDS011;68959;53.132;17.984;2023-04-06T04:23:36;74.60;;;33.70;;
79377;SDS011;68959;53.132;17.984;2023-04-06T04:26:03;60.80;;;28.70;;
79377;SDS011;68959;53.132;17.984;2023-04-06T04:28:29;48.40;;;24.20;;
79377;SDS011;68959;53.132;17.984;2023-04-06T04:30:56;40.70;;;19.50;;
79377;SDS011;68959;53.132;17.984;2023-04-06T04:33:23;56.90;;;21.60;;
79377;SDS011;68959;53.132;17.984;2023-04-06T04:35:50;46.10;;;22.60;;
79377;SDS011;68959;53.132;17.984;2023-04-06T04:38:18;52.90;;;24.70;;
79377;SDS011;68959;53.132;17.984;2023-04-06T04:40:50;54.60;;;22.80;;
79377;SDS011;68959;53.132;17.984;2023-04-06T04:43:16;65.30;;;28.10;;
79377;SDS011;68959;53.132;17.984;2023-04-06T04:45:44;71.10;;;27.50;;
79377;SDS011;68959;53.132;17.984;2023-04-06T04:48:31;91.70;;;34.30;;
79377;SDS011;68959;53.132;17.984;2023-04-06T04:51:00;116.20;;;42.70;;
79377;SDS011;68959;53.132;17.984;2023-04-06T04:53:33;116.40;;;45.70;;
79377;SDS011;68959;53.132;17.984;2023-04-06T04:56:05;126.60;;;52.60;;
79377;SDS011;68959;53.132;17.984;2023-04-06T04:58:32;123.60;;;51.30;;
79377;SDS011;68959;53.132;17.984;2023-04-06T05:00:59;125.40;;;51.80;;
79377;SDS011;68959;53.132;17.984;2023-04-06T05:03:27;120.20;;;48.80;;
79377;SDS011;68959;53.132;17.984;2023-04-06T05:05:59;85.00;;;37.60;;
79377;SDS011;68959;53.132;17.984;2023-04-06T05:08:29;82.90;;;35.00;;
79377;SDS011;68959;53.132;17.984;2023-04-06T05:10:56;72.00;;;28.60;;
79377;SDS011;68959;53.132;17.984;2023-04-06T05:13:23;85.80;;;34.40;;
79377;SDS011;68959;53.132;17.984;2023-04-06T05:15:50;92.30;;;38.20;;
79377;SDS011;68959;53.132;17.984;2023-04-06T05:18:25;86.40;;;38.50;;
79377;SDS011;68959;53.132;17.984;2023-04-06T05:20:52;77.40;;;34.80;;
79377;SDS011;68959;53.132;17.984;2023-04-06T05:23:20;90.10;;;34.70;;
79377;SDS011;68959;53.132;17.984;2023-04-06T05:25:47;88.80;;;37.50;;
79377;SDS011;68959;53.132;17.984;2023-04-06T05:30:45;93.70;;;36.30;;
79377;SDS011;68959;53.132;17.984;2023-04-06T05:33:12;85.00;;;34.30;;
79377;SDS011;68959;53.132;17.984;2023-04-06T05:35:59;79.20;;;35.80;;
79377;SDS011;68959;53.132;17.984;2023-04-06T05:38:27;66.90;;;32.30;;
79377;SDS011;68959;53.132;17.984;2023-04-06T05:40:55;61.20;;;27.40;;
79377;SDS011;68959;53.132;17.984;2023-04-06T05:43:24;76.50;;;33.40;;
79377;SDS011;68959;53.132;17.984;2023-04-06T05:45:54;85.40;;;33.70;;
79377;SDS011;68959;53.132;17.984;2023-04-06T05:48:20;87.20;;;37.50;;
79377;SDS011;68959;53.132;17.984;2023-04-06T05:50:50;90.90;;;37.90;;
79377;SDS011;68959;53.132;17.984;2023-04-06T05:53:18;88.20;;;36.30;;
79377;SDS011;68959;53.132;17.984;2023-04-06T05:55:51;82.00;;;35.60;;
79377;SDS011;68959;53.132;17.984;2023-04-06T05:58:18;91.70;;;39.80;;
79377;SDS011;68959;53.132;17.984;2023-04-06T06:00:45;81.80;;;36.80;;
79377;SDS011;68959;53.132;17.984;2023-04-06T06:03:14;81.00;;;34.80;;
79377;SDS011;68959;53.132;17.984;2023-04-06T06:05:42;74.30;;;32.50;;
79377;SDS011;68959;53.132;17.984;2023-04-06T06:08:12;81.70;;;35.00;;
79377;SDS011;68959;53.132;17.984;2023-04-06T06:10:39;81.60;;;33.50;;
79377;SDS011;68959;53.132;17.984;2023-04-06T06:13:07;80.40;;;34.60;;
79377;SDS011;68959;53.132;17.984;2023-04-06T06:15:34;83.40;;;35.50;;
79377;SDS011;68959;53.132;17.984;2023-04-06T06:18:02;83.90;;;37.70;;
79377;SDS011;68959;53.132;17.984;2023-04-06T06:20:29;74.30;;;32.30;;
79377;SDS011;68959;53.132;17.984;2023-04-06T06:22:59;73.60;;;30.50;;
79377;SDS011;68959;53.132;17.984;2023-04-06T06:25:25;72.30;;;33.30;;
79377;SDS011;68959;53.132;17.984;2023-04-06T06:27:52;63.90;;;28.70;;
79377;SDS011;68959;53.132;17.984;2023-04-06T06:30:19;67.70;;;31.10;;
79377;SDS011;68959;53.132;17.984;2023-04-06T06:32:46;61.80;;;29.40;;
79377;SDS011;68959;53.132;17.984;2023-04-06T06:35:13;63.40;;;29.40;;
79377;SDS011;68959;53.132;17.984;2023-04-06T06:37:40;50.00;;;24.90;;
79377;SDS011;68959;53.132;17.984;2023-04-06T06:40:08;56.60;;;28.40;;
79377;SDS011;68959;53.132;17.984;2023-04-06T06:42:36;124.00;;;51.60;;
79377;SDS011;68959;53.132;17.984;2023-04-06T06:45:14;108.10;;;42.80;;
79377;SDS011;68959;53.132;17.984;2023-04-06T06:47:42;92.40;;;41.10;;
79377;SDS011;68959;53.132;17.984;2023-04-06T06:50:11;85.30;;;36.80;;
79377;SDS011;68959;53.132;17.984;2023-04-06T06:52:37;76.80;;;34.50;;
79377;SDS011;68959;53.132;17.984;2023-04-06T06:55:04;71.70;;;33.50;;
79377;SDS011;68959;53.132;17.984;2023-04-06T06:57:31;67.00;;;33.20;;
79377;SDS011;68959;53.132;17.984;2023-04-06T06:59:58;77.20;;;34.00;;
79377;SDS011;68959;53.132;17.984;2023-04-06T07:02:27;64.60;;;30.70;;
79377;SDS011;68959;53.132;17.984;2023-04-06T07:04:53;77.30;;;33.70;;
79377;SDS011;68959;53.132;17.984;2023-04-06T07:07:20;72.30;;;36.90;;
79377;SDS011;68959;53.132;17.984;2023-04-06T07:09:47;89.60;;;41.00;;
79377;SDS011;68959;53.132;17.984;2023-04-06T07:12:13;91.80;;;43.20;;
79377;SDS011;68959;53.132;17.984;2023-04-06T07:14:40;94.20;;;41.80;;
79377;SDS011;68959;53.132;17.984;2023-04-06T07:17:07;87.60;;;39.10;;
79377;SDS011;68959;53.132;17.984;2023-04-06T07:19:34;83.50;;;37.60;;
79377;SDS011;68959;53.132;17.984;2023-04-06T07:22:00;71.10;;;31.50;;
79377;SDS011;68959;53.132;17.984;2023-04-06T07:24:28;64.90;;;29.30;;
79377;SDS011;68959;53.132;17.984;2023-04-06T07:26:55;66.20;;;31.10;;
79377;SDS011;68959;53.132;17.984;2023-04-06T07:29:23;64.30;;;30.40;;
79377;SDS011;68959;53.132;17.984;2023-04-06T07:31:50;66.40;;;29.20;;
79377;SDS011;68959;53.132;17.984;2023-04-06T07:34:16;60.10;;;27.20;;
79377;SDS011;68959;53.132;17.984;2023-04-06T07:36:44;83.10;;;27.60;;
79377;SDS011;68959;53.132;17.984;2023-04-06T07:39:11;43.20;;;23.40;;
79377;SDS011;68959;53.132;17.984;2023-04-06T07:41:38;45.30;;;21.00;;
79377;SDS011;68959;53.132;17.984;2023-04-06T07:44:04;47.00;;;24.00;;
79377;SDS011;68959;53.132;17.984;2023-04-06T07:46:32;46.40;;;20.60;;
79377;SDS011;68959;53.132;17.984;2023-04-06T07:48:59;56.00;;;23.60;;
79377;SDS011;68959;53.132;17.984;2023-04-06T07:51:30;44.80;;;21.20;;
79377;SDS011;68959;53.132;17.984;2023-04-06T07:53:57;44.00;;;23.00;;
79377;SDS011;68959;53.132;17.984;2023-04-06T07:56:24;31.70;;;16.50;;
79377;SDS011;68959;53.132;17.984;2023-04-06T07:58:51;33.00;;;16.70;;
79377;SDS011;68959;53.132;17.984;2023-04-06T08:01:21;36.60;;;16.40;;
79377;SDS011;68959;53.132;17.984;2023-04-06T08:03:48;25.80;;;12.50;;
79377;SDS011;68959;53.132;17.984;2023-04-06T08:06:15;52.30;;;25.10;;
79377;SDS011;68959;53.132;17.984;2023-04-06T08:08:43;21.40;;;11.10;;
79377;SDS011;68959;53.132;17.984;2023-04-06T08:11:09;19.70;;;11.10;;
79377;SDS011;68959;53.132;17.984;2023-04-06T08:13:36;24.20;;;10.60;;
79377;SDS011;68959;53.132;17.984;2023-04-06T08:16:03;23.10;;;10.90;;
79377;SDS011;68959;53.132;17.984;2023-04-06T08:18:30;21.70;;;11.10;;
79377;SDS011;68959;53.132;17.984;2023-04-06T08:20:57;17.90;;;8.30;;
79377;SDS011;68959;53.132;17.984;2023-04-06T08:23:23;16.10;;;8.30;;
79377;SDS011;68959;53.132;17.984;2023-04-06T08:25:50;14.80;;;7.30;;
79377;SDS011;68959;53.132;17.984;2023-04-06T08:28:20;11.80;;;6.20;;
79377;SDS011;68959;53.132;17.984;2023-04-06T08:30:47;12.10;;;6.10;;
79377;SDS011;68959;53.132;17.984;2023-04-06T08:33:14;8.10;;;4.50;;
79377;SDS011;68959;53.132;17.984;2023-04-06T08:35:41;11.70;;;4.60;;
79377;SDS011;68959;53.132;17.984;2023-04-06T08:38:08;7.60;;;4.30;;
79377;SDS011;68959;53.132;17.984;2023-04-06T08:40:35;7.10;;;4.10;;
79377;SDS011;68959;53.132;17.984;2023-04-06T08:43:03;8.70;;;5.00;;
79377;SDS011;68959;53.132;17.984;2023-04-06T08:45:35;9.90;;;4.80;;
79377;SDS011;68959;53.132;17.984;2023-04-06T08:48:02;11.10;;;5.60;;
79377;SDS011;68959;53.132;17.984;2023-04-06T08:50:29;7.90;;;4.70;;
79377;SDS011;68959;53.132;17.984;2023-04-06T08:52:56;9.70;;;4.90;;
79377;SDS011;68959;53.132;17.984;2023-04-06T08:55:23;7.10;;;4.70;;
79377;SDS011;68959;53.132;17.984;2023-04-06T08:57:50;9.10;;;4.40;;
79377;SDS011;68959;53.132;17.984;2023-04-06T09:00:21;7.70;;;4.30;;
79377;SDS011;68959;53.132;17.984;2023-04-06T09:02:49;8.90;;;4.10;;
79377;SDS011;68959;53.132;17.984;2023-04-06T09:05:16;7.70;;;4.80;;
79377;SDS011;68959;53.132;17.984;2023-04-06T09:07:44;11.20;;;4.90;;
79377;SDS011;68959;53.132;17.984;2023-04-06T09:10:11;6.60;;;4.30;;
79377;SDS011;68959;53.132;17.984;2023-04-06T09:12:38;6.70;;;4.60;;
79377;SDS011;68959;53.132;17.984;2023-04-06T09:15:05;8.20;;;4.60;;
79377;SDS011;68959;53.132;17.984;2023-04-06T09:17:32;6.90;;;4.50;;
79377;SDS011;68959;53.132;17.984;2023-04-06T09:20:01;7.80;;;4.60;;
79377;SDS011;68959;53.132;17.984;2023-04-06T09:25:04;11.60;;;4.90;;
79377;SDS011;68959;53.132;17.984;2023-04-06T09:27:38;6.70;;;4.70;;
79377;SDS011;68959;53.132;17.984;2023-04-06T09:30:05;8.60;;;5.50;;
79377;SDS011;68959;53.132;17.984;2023-04-06T09:32:47;9.70;;;5.70;;
79377;SDS011;68959;53.132;17.984;2023-04-06T09:35:16;8.40;;;4.90;;
79377;SDS011;68959;53.132;17.984;2023-04-06T09:37:43;7.90;;;4.70;;
79377;SDS011;68959;53.132;17.984;2023-04-06T09:40:10;7.90;;;4.90;;
79377;SDS011;68959;53.132;17.984;2023-04-06T09:42:37;7.20;;;4.90;;
79377;SDS011;68959;53.132;17.984;2023-04-06T09:45:08;8.30;;;5.70;;
79377;SDS011;68959;53.132;17.984;2023-04-06T09:47:35;9.90;;;5.30;;
79377;SDS011;68959;53.132;17.984;2023-04-06T09:50:03;10.20;;;5.40;;
79377;SDS011;68959;53.132;17.984;2023-04-06T09:52:32;10.60;;;5.10;;
79377;SDS011;68959;53.132;17.984;2023-04-06T09:55:01;7.70;;;5.60;;
79377;SDS011;68959;53.132;17.984;2023-04-06T09:57:32;12.90;;;5.10;;
79377;SDS011;68959;53.132;17.984;2023-04-06T10:02:56;7.10;;;5.00;;
79377;SDS011;68959;53.132;17.984;2023-04-06T10:07:53;7.00;;;4.80;;
79377;SDS011;68959;53.132;17.984;2023-04-06T10:10:22;11.80;;;5.00;;
79377;SDS011;68959;53.132;17.984;2023-04-06T10:12:49;7.20;;;4.90;;
79377;SDS011;68959;53.132;17.984;2023-04-06T10:15:16;14.50;;;4.80;;
79377;SDS011;68959;53.132;17.984;2023-04-06T10:17:43;14.60;;;5.30;;
79377;SDS011;68959;53.132;17.984;2023-04-06T10:25:33;8.00;;;4.40;;
79377;SDS011;68959;53.132;17.984;2023-04-06T10:28:01;7.90;;;5.60;;
79377;SDS011;68959;53.132;17.984;2023-04-06T10:30:31;10.10;;;5.50;;
79377;SDS011;68959;53.132;17.984;2023-04-06T10:32:59;9.20;;;4.80;;
79377;SDS011;68959;53.132;17.984;2023-04-06T10:35:36;7.60;;;4.90;;
79377;SDS011;68959;53.132;17.984;2023-04-06T10:38:05;8.30;;;4.60;;
79377;SDS011;68959;53.132;17.984;2023-04-06T10:40:31;6.90;;;4.50;;
79377;SDS011;68959;53.132;17.984;2023-04-06T10:46:04;5.90;;;4.40;;
79377;SDS011;68959;53.132;17.984;2023-04-06T10:51:16;11.40;;;5.10;;
79377;SDS011;68959;53.132;17.984;2023-04-06T10:53:45;6.90;;;4.40;;
79377;SDS011;68959;53.132;17.984;2023-04-06T10:56:14;5.40;;;4.30;;
79377;SDS011;68959;53.132;17.984;2023-04-06T10:58:49;6.00;;;3.80;;
79377;SDS011;68959;53.132;17.984;2023-04-06T11:01:18;8.30;;;3.90;;
79377;SDS011;68959;53.132;17.984;2023-04-06T11:03:47;8.40;;;4.30;;
79377;SDS011;68959;53.132;17.984;2023-04-06T11:06:24;5.90;;;4.30;;
79377;SDS011;68959;53.132;17.984;2023-04-06T11:08:53;6.30;;;4.80;;
79377;SDS011;68959;53.132;17.984;2023-04-06T11:11:23;9.60;;;4.50;;
79377;SDS011;68959;53.132;17.984;2023-04-06T11:13:56;9.00;;;4.60;;
79377;SDS011;68959;53.132;17.984;2023-04-06T11:16:28;9.70;;;4.70;;
79377;SDS011;68959;53.132;17.984;2023-04-06T11:18:57;9.70;;;5.20;;
79377;SDS011;68959;53.132;17.984;2023-04-06T11:21:38;6.50;;;4.10;;
79377;SDS011;68959;53.132;17.984;2023-04-06T11:26:44;8.60;;;3.80;;
79377;SDS011;68959;53.132;17.984;2023-04-06T11:29:11;7.30;;;4.40;;
79377;SDS011;68959;53.132;17.984;2023-04-06T11:31:40;10.50;;;3.90;;
79377;SDS011;68959;53.132;17.984;2023-04-06T11:34:11;12.50;;;4.40;;
79377;SDS011;68959;53.132;17.984;2023-04-06T11:36:48;5.40;;;4.00;;
79377;SDS011;68959;53.132;17.984;2023-04-06T11:39:21;13.50;;;4.00;;
79377;SDS011;68959;53.132;17.984;2023-04-06T11:44:32;12.20;;;4.30;;
79377;SDS011;68959;53.132;17.984;2023-04-06T11:47:00;6.20;;;3.90;;
79377;SDS011;68959;53.132;17.984;2023-04-06T11:49:30;10.90;;;3.80;;
79377;SDS011;68959;53.132;17.984;2023-04-06T11:51:58;5.90;;;4.10;;
79377;SDS011;68959;53.132;17.984;2023-04-06T11:54:30;11.00;;;4.20;;
79377;SDS011;68959;53.132;17.984;2023-04-06T11:56:57;13.30;;;3.90;;
79377;SDS011;68959;53.132;17.984;2023-04-06T11:59:23;8.10;;;4.00;;
79377;SDS011;68959;53.132;17.984;2023-04-06T12:01:50;7.40;;;3.80;;
79377;SDS011;68959;53.132;17.984;2023-04-06T12:04:18;5.10;;;3.90;;
79377;SDS011;68959;53.132;17.984;2023-04-06T12:06:45;7.00;;;4.30;;
79377;SDS011;68959;53.132;17.984;2023-04-06T12:09:12;5.90;;;4.30;;
79377;SDS011;68959;53.132;17.984;2023-04-06T12:11:39;8.60;;;4.50;;
79377;SDS011;68959;53.132;17.984;2023-04-06T12:14:07;6.20;;;4.00;;
79377;SDS011;68959;53.132;17.984;2023-04-06T12:16:34;10.30;;;4.50;;
79377;SDS011;68959;53.132;17.984;2023-04-06T12:19:01;5.90;;;3.80;;
79377;SDS011;68959;53.132;17.984;2023-04-06T12:21:28;6.30;;;4.00;;
79377;SDS011;68959;53.132;17.984;2023-04-06T12:26:24;5.50;;;3.70;;
79377;SDS011;68959;53.132;17.984;2023-04-06T12:28:51;6.30;;;3.60;;
79377;SDS011;68959;53.132;17.984;2023-04-06T12:31:18;9.20;;;3.80;;
79377;SDS011;68959;53.132;17.984;2023-04-06T12:33:46;11.80;;;4.10;;
79377;SDS011;68959;53.132;17.984;2023-04-06T12:36:14;5.30;;;3.60;;
79377;SDS011;68959;53.132;17.984;2023-04-06T12:38:45;6.10;;;3.90;;
79377;SDS011;68959;53.132;17.984;2023-04-06T12:41:15;9.10;;;3.70;;
79377;SDS011;68959;53.132;17.984;2023-04-06T12:43:42;10.00;;;4.80;;
79377;SDS011;68959;53.132;17.984;2023-04-06T12:46:10;17.70;;;5.60;;
79377;SDS011;68959;53.132;17.984;2023-04-06T12:48:37;11.10;;;5.00;;
79377;SDS011;68959;53.132;17.984;2023-04-06T12:51:05;7.20;;;4.00;;
79377;SDS011;68959;53.132;17.984;2023-04-06T12:53:32;8.30;;;3.90;;
79377;SDS011;68959;53.132;17.984;2023-04-06T12:56:00;5.10;;;3.70;;
79377;SDS011;68959;53.132;17.984;2023-04-06T12:58:28;8.10;;;3.90;;
79377;SDS011;68959;53.132;17.984;2023-04-06T13:00:57;9.50;;;4.20;;
79377;SDS011;68959;53.132;17.984;2023-04-06T13:03:28;7.10;;;4.30;;
79377;SDS011;68959;53.132;17.984;2023-04-06T13:05:56;9.10;;;4.10;;
79377;SDS011;68959;53.132;17.984;2023-04-06T13:08:22;7.00;;;4.20;;
79377;SDS011;68959;53.132;17.984;2023-04-06T13:10:49;14.60;;;4.10;;
79377;SDS011;68959;53.132;17.984;2023-04-06T13:15:48;12.70;;;5.70;;
79377;SDS011;68959;53.132;17.984;2023-04-06T13:18:15;9.40;;;4.40;;
79377;SDS011;68959;53.132;17.984;2023-04-06T13:20:42;12.60;;;4.20;;
79377;SDS011;68959;53.132;17.984;2023-04-06T13:23:08;7.60;;;4.20;;
79377;SDS011;68959;53.132;17.984;2023-04-06T13:25:35;8.70;;;4.20;;
79377;SDS011;68959;53.132;17.984;2023-04-06T13:28:03;16.30;;;5.30;;
79377;SDS011;68959;53.132;17.984;2023-04-06T13:30:30;8.60;;;4.70;;
79377;SDS011;68959;53.132;17.984;2023-04-06T13:32:57;9.00;;;4.50;;
79377;SDS011;68959;53.132;17.984;2023-04-06T13:35:24;7.80;;;4.70;;
79377;SDS011;68959;53.132;17.984;2023-04-06T13:37:50;9.90;;;4.90;;
79377;SDS011;68959;53.132;17.984;2023-04-06T13:40:18;9.80;;;4.50;;
79377;SDS011;68959;53.132;17.984;2023-04-06T13:42:46;7.50;;;4.50;;
79377;SDS011;68959;53.132;17.984;2023-04-06T13:45:13;11.10;;;5.10;;
79377;SDS011;68959;53.132;17.984;2023-04-06T13:47:40;10.70;;;5.00;;
79377;SDS011;68959;53.132;17.984;2023-04-06T13:50:07;8.90;;;5.40;;
79377;SDS011;68959;53.132;17.984;2023-04-06T13:52:35;10.60;;;4.60;;
79377;SDS011;68959;53.132;17.984;2023-04-06T13:55:02;8.20;;;4.60;;
79377;SDS011;68959;53.132;17.984;2023-04-06T13:57:29;7.20;;;4.40;;
79377;SDS011;68959;53.132;17.984;2023-04-06T13:59:56;8.40;;;4.70;;
79377;SDS011;68959;53.132;17.984;2023-04-06T14:02:22;12.00;;;5.40;;
79377;SDS011;68959;53.132;17.984;2023-04-06T14:04:53;12.50;;;5.10;;
79377;SDS011;68959;53.132;17.984;2023-04-06T14:07:20;7.70;;;4.00;;
79377;SDS011;68959;53.132;17.984;2023-04-06T14:09:47;8.80;;;5.40;;
79377;SDS011;68959;53.132;17.984;2023-04-06T14:12:14;14.70;;;6.40;;
79377;SDS011;68959;53.132;17.984;2023-04-06T14:14:40;9.80;;;5.10;;
79377;SDS011;68959;53.132;17.984;2023-04-06T14:17:07;9.30;;;5.60;;
79377;SDS011;68959;53.132;17.984;2023-04-06T14:19:34;10.80;;;5.50;;
79377;SDS011;68959;53.132;17.984;2023-04-06T14:22:02;11.90;;;5.50;;
79377;SDS011;68959;53.132;17.984;2023-04-06T14:24:28;10.80;;;5.70;;
79377;SDS011;68959;53.132;17.984;2023-04-06T14:26:56;13.30;;;7.50;;
79377;SDS011;68959;53.132;17.984;2023-04-06T14:29:23;16.50;;;6.20;;
79377;SDS011;68959;53.132;17.984;2023-04-06T14:31:50;9.90;;;5.30;;
79377;SDS011;68959;53.132;17.984;2023-04-06T14:34:16;10.10;;;5.90;;
79377;SDS011;68959;53.132;17.984;2023-04-06T14:36:43;26.70;;;6.20;;
79377;SDS011;68959;53.132;17.984;2023-04-06T14:39:10;8.60;;;4.80;;
79377;SDS011;68959;53.132;17.984;2023-04-06T14:41:36;17.20;;;5.70;;
79377;SDS011;68959;53.132;17.984;2023-04-06T14:44:03;8.30;;;4.90;;
79377;SDS011;68959;53.132;17.984;2023-04-06T14:46:31;13.20;;;6.20;;
79377;SDS011;68959;53.132;17.984;2023-04-06T14:48:57;8.60;;;4.70;;
79377;SDS011;68959;53.132;17.984;2023-04-06T14:51:25;9.30;;;5.40;;
79377;SDS011;68959;53.132;17.984;2023-04-06T14:53:55;11.20;;;4.80;;
79377;SDS011;68959;53.132;17.984;2023-04-06T14:56:22;8.40;;;4.70;;